Terminal Aerodrome Forecast
Issued by NWS

Home | Current Version | Previous Version | Text Only | Print | Product List | Glossary On
Versions: 1 2 3 4 5 6 7 8 9 10 11 12 13 14 15 16 17 18 19 20 21 22
000
FTUS43 KMPX 192320
TAFRNH
TAF
KRNH 192320Z 2000/2024 12010KT P6SM BKN090
     FM200300 13009KT P6SM VCTS SCT060CB BKN250
      TEMPO 2004/2007 2SM TSRA BR BKN025CB OVC100
     FM200800 30006KT 4SM BR BKN015
     FM201300 36008KT P6SM SKC
     FM201800 33007KT P6SM SKC=

USA.gov is the U.S. government's official web portal to all federal, state and local government web resources and services.